sensor_id;sensor_type;location;lat;lon;timestamp;pressure;altitude;pressure_sealevel;temperature;humidity
26531;BME280;14201;43.188;24.160;2024-03-23T00:55:37;99732.78;;;4.96;69.76
26531;BME280;14201;43.188;24.160;2024-03-23T00:58:03;99725.16;;;4.98;69.37
26531;BME280;14201;43.188;24.160;2024-03-23T01:00:29;99730.72;;;5.04;68.57
26531;BME280;14201;43.188;24.160;2024-03-23T01:02:54;99725.06;;;5.09;69.22
26531;BME280;14201;43.188;24.160;2024-03-23T01:05:20;99733.78;;;5.11;68.71
26531;BME280;14201;43.188;24.160;2024-03-23T01:07:46;99727.13;;;5.02;68.77
26531;BME280;14201;43.188;24.160;2024-03-23T01:10:11;99734.09;;;5.03;69.04
26531;BME280;14201;43.188;24.160;2024-03-23T01:12:37;99724.88;;;5.06;69.04
26531;BME280;14201;43.188;24.160;2024-03-23T01:15:03;99726.75;;;4.96;68.91
26531;BME280;14201;43.188;24.160;2024-03-23T01:17:28;99718.09;;;4.95;68.70
26531;BME280;14201;43.188;24.160;2024-03-23T01:19:54;99726.13;;;5.00;68.48
26531;BME280;14201;43.188;24.160;2024-03-23T01:22:19;99728.16;;;4.90;67.59
26531;BME280;14201;43.188;24.160;2024-03-23T01:24:45;99726.53;;;4.79;67.80
26531;BME280;14201;43.188;24.160;2024-03-23T01:27:11;99719.91;;;4.83;67.81
26531;BME280;14201;43.188;24.160;2024-03-23T01:29:36;99728.91;;;4.76;67.99
26531;BME280;14201;43.188;24.160;2024-03-23T01:32:02;99723.94;;;4.66;67.47
26531;BME280;14201;43.188;24.160;2024-03-23T01:34:27;99722.00;;;4.63;67.75
26531;BME280;14201;43.188;24.160;2024-03-23T01:36:53;99717.84;;;4.52;68.91
26531;BME280;14201;43.188;24.160;2024-03-23T01:39:19;99714.94;;;4.47;68.86
26531;BME280;14201;43.188;24.160;2024-03-23T01:41:44;99711.25;;;4.44;68.79
26531;BME280;14201;43.188;24.160;2024-03-23T01:44:10;99717.00;;;4.40;69.18
26531;BME280;14201;43.188;24.160;2024-03-23T01:46:37;99715.59;;;4.31;69.91
26531;BME280;14201;43.188;24.160;2024-03-23T01:49:04;99720.75;;;4.31;70.44
26531;BME280;14201;43.188;24.160;2024-03-23T01:51:30;99715.81;;;4.34;69.61
26531;BME280;14201;43.188;24.160;2024-03-23T01:53:57;99717.69;;;4.37;69.47
26531;BME280;14201;43.188;24.160;2024-03-23T01:56:27;99718.81;;;4.41;68.34
26531;BME280;14201;43.188;24.160;2024-03-23T01:58:53;99721.75;;;4.33;69.00
26531;BME280;14201;43.188;24.160;2024-03-23T02:01:19;99719.22;;;4.22;68.82
26531;BME280;14201;43.188;24.160;2024-03-23T02:03:45;99711.06;;;4.16;69.29
26531;BME280;14201;43.188;24.160;2024-03-23T02:06:10;99711.44;;;4.08;69.82
26531;BME280;14201;43.188;24.160;2024-03-23T02:08:36;99713.59;;;4.02;70.35
26531;BME280;14201;43.188;24.160;2024-03-23T02:11:02;99711.78;;;4.01;70.62
26531;BME280;14201;43.188;24.160;2024-03-23T02:13:28;99708.56;;;4.04;70.41
26531;BME280;14201;43.188;24.160;2024-03-23T02:15:53;99712.91;;;4.05;70.35
26531;BME280;14201;43.188;24.160;2024-03-23T02:18:19;99717.53;;;3.97;71.07
26531;BME280;14201;43.188;24.160;2024-03-23T02:20:44;99711.31;;;4.07;70.82
26531;BME280;14201;43.188;24.160;2024-03-23T02:23:16;99717.06;;;4.03;71.03
26531;BME280;14201;43.188;24.160;2024-03-23T02:25:43;99707.31;;;3.99;70.63
26531;BME280;14201;43.188;24.160;2024-03-23T02:28:09;99706.22;;;3.95;71.06
26531;BME280;14201;43.188;24.160;2024-03-23T02:30:36;99708.69;;;3.93;71.11
26531;BME280;14201;43.188;24.160;2024-03-23T02:33:01;99706.69;;;3.89;71.91
26531;BME280;14201;43.188;24.160;2024-03-23T02:35:27;99709.84;;;3.85;72.11
26531;BME280;14201;43.188;24.160;2024-03-23T02:37:52;99707.84;;;3.81;72.95
26531;BME280;14201;43.188;24.160;2024-03-23T02:40:19;99705.50;;;3.84;72.69
26531;BME280;14201;43.188;24.160;2024-03-23T02:42:46;99707.16;;;3.84;72.41
26531;BME280;14201;43.188;24.160;2024-03-23T02:45:11;99703.50;;;3.80;72.04
26531;BME280;14201;43.188;24.160;2024-03-23T02:47:37;99707.72;;;3.80;72.90
26531;BME280;14201;43.188;24.160;2024-03-23T02:50:03;99699.41;;;3.84;72.71
26531;BME280;14201;43.188;24.160;2024-03-23T02:52:29;99712.75;;;3.90;72.33
26531;BME280;14201;43.188;24.160;2024-03-23T02:54:55;99709.06;;;3.86;72.19
26531;BME280;14201;43.188;24.160;2024-03-23T02:57:21;99704.03;;;3.76;70.08
26531;BME280;14201;43.188;24.160;2024-03-23T02:59:46;99702.03;;;3.72;70.43
26531;BME280;14201;43.188;24.160;2024-03-23T03:02:13;99701.03;;;3.70;71.95
26531;BME280;14201;43.188;24.160;2024-03-23T03:04:39;99694.91;;;3.56;72.42
26531;BME280;14201;43.188;24.160;2024-03-23T03:07:04;99696.91;;;3.60;71.89
26531;BME280;14201;43.188;24.160;2024-03-23T03:09:30;99692.16;;;3.53;72.48
26531;BME280;14201;43.188;24.160;2024-03-23T03:11:56;99693.25;;;3.45;73.25
26531;BME280;14201;43.188;24.160;2024-03-23T03:14:21;99690.22;;;3.50;72.86
26531;BME280;14201;43.188;24.160;2024-03-23T03:16:47;99696.81;;;3.59;72.65
26531;BME280;14201;43.188;24.160;2024-03-23T03:19:13;99687.53;;;3.49;72.88
26531;BME280;14201;43.188;24.160;2024-03-23T03:21:39;99686.19;;;3.54;72.75
26531;BME280;14201;43.188;24.160;2024-03-23T03:24:06;99695.94;;;3.46;72.94
26531;BME280;14201;43.188;24.160;2024-03-23T03:26:32;99701.91;;;3.45;73.03
26531;BME280;14201;43.188;24.160;2024-03-23T03:28:57;99692.03;;;3.51;72.61
26531;BME280;14201;43.188;24.160;2024-03-23T03:31:23;99692.81;;;3.50;72.24
26531;BME280;14201;43.188;24.160;2024-03-23T03:33:49;99693.72;;;3.39;73.09
26531;BME280;14201;43.188;24.160;2024-03-23T03:36:16;99692.06;;;3.40;73.54
26531;BME280;14201;43.188;24.160;2024-03-23T03:38:41;99684.91;;;3.35;73.44
26531;BME280;14201;43.188;24.160;2024-03-23T03:41:07;99684.38;;;3.28;73.36
26531;BME280;14201;43.188;24.160;2024-03-23T03:43:33;99686.47;;;3.33;73.53
26531;BME280;14201;43.188;24.160;2024-03-23T03:46:00;99684.38;;;3.28;73.63
26531;BME280;14201;43.188;24.160;2024-03-23T03:48:26;99685.94;;;3.26;73.26
26531;BME280;14201;43.188;24.160;2024-03-23T03:50:52;99658.97;;;3.09;73.50
26531;BME280;14201;43.188;24.160;2024-03-23T03:53:18;99682.69;;;3.05;73.88
26531;BME280;14201;43.188;24.160;2024-03-23T03:55:44;99688.16;;;3.09;73.65
26531;BME280;14201;43.188;24.160;2024-03-23T03:58:10;99680.31;;;3.20;73.48
26531;BME280;14201;43.188;24.160;2024-03-23T04:00:35;99671.03;;;3.22;73.25
26531;BME280;14201;43.188;24.160;2024-03-23T04:03:01;99671.03;;;3.10;73.26
26531;BME280;14201;43.188;24.160;2024-03-23T04:05:27;99695.13;;;3.10;73.78
26531;BME280;14201;43.188;24.160;2024-03-23T04:07:53;99678.31;;;3.15;73.52
26531;BME280;14201;43.188;24.160;2024-03-23T04:10:20;99676.97;;;3.21;73.48
26531;BME280;14201;43.188;24.160;2024-03-23T04:12:45;99671.50;;;3.16;73.12
26531;BME280;14201;43.188;24.160;2024-03-23T04:15:11;99683.00;;;3.21;73.26
26531;BME280;14201;43.188;24.160;2024-03-23T04:17:37;99688.84;;;3.19;73.69
26531;BME280;14201;43.188;24.160;2024-03-23T04:20:03;99682.13;;;3.21;73.88
26531;BME280;14201;43.188;24.160;2024-03-23T04:22:34;99687.47;;;3.24;72.84
26531;BME280;14201;43.188;24.160;2024-03-23T04:25:00;99677.09;;;3.22;73.15
26531;BME280;14201;43.188;24.160;2024-03-23T04:27:28;99682.56;;;3.27;73.20
26531;BME280;14201;43.188;24.160;2024-03-23T04:29:54;99684.38;;;3.28;74.03
26531;BME280;14201;43.188;24.160;2024-03-23T04:32:20;99681.34;;;3.10;73.41
26531;BME280;14201;43.188;24.160;2024-03-23T04:34:45;99688.84;;;2.95;72.84
26531;BME280;14201;43.188;24.160;2024-03-23T04:37:11;99679.34;;;2.94;73.57
26531;BME280;14201;43.188;24.160;2024-03-23T04:39:37;99690.31;;;3.03;73.74
26531;BME280;14201;43.188;24.160;2024-03-23T04:42:03;99692.75;;;3.13;73.70
26531;BME280;14201;43.188;24.160;2024-03-23T04:44:29;99689.38;;;3.26;74.01
26531;BME280;14201;43.188;24.160;2024-03-23T04:46:56;99686.69;;;3.37;73.83
26531;BME280;14201;43.188;24.160;2024-03-23T04:49:22;99691.22;;;3.52;74.41
26531;BME280;14201;43.188;24.160;2024-03-23T04:51:47;99686.59;;;3.72;74.02
26531;BME280;14201;43.188;24.160;2024-03-23T04:54:13;99682.78;;;3.79;73.37
26531;BME280;14201;43.188;24.160;2024-03-23T04:56:39;99689.91;;;3.83;73.55
26531;BME280;14201;43.188;24.160;2024-03-23T04:59:05;99683.72;;;3.92;74.00
26531;BME280;14201;43.188;24.160;2024-03-23T05:01:31;99683.25;;;4.23;72.84
26531;BME280;14201;43.188;24.160;2024-03-23T05:03:57;99686.31;;;4.18;73.02
26531;BME280;14201;43.188;24.160;2024-03-23T05:06:24;99691.63;;;4.32;72.51
26531;BME280;14201;43.188;24.160;2024-03-23T05:08:49;99682.66;;;4.27;71.91
26531;BME280;14201;43.188;24.160;2024-03-23T05:11:15;99686.75;;;4.37;72.65
26531;BME280;14201;43.188;24.160;2024-03-23T05:13:41;99683.50;;;4.53;72.47
26531;BME280;14201;43.188;24.160;2024-03-23T05:16:07;99678.09;;;4.62;72.90
26531;BME280;14201;43.188;24.160;2024-03-23T05:18:34;99683.06;;;4.72;73.32
26531;BME280;14201;43.188;24.160;2024-03-23T05:21:00;99685.66;;;4.99;73.17
26531;BME280;14201;43.188;24.160;2024-03-23T05:23:27;99681.97;;;5.22;73.26
26531;BME280;14201;43.188;24.160;2024-03-23T05:25:53;99680.50;;;5.25;73.44
26531;BME280;14201;43.188;24.160;2024-03-23T05:28:20;99683.81;;;5.51;72.00
26531;BME280;14201;43.188;24.160;2024-03-23T05:30:53;99680.50;;;5.67;70.31
26531;BME280;14201;43.188;24.160;2024-03-23T05:33:19;99684.69;;;5.65;72.25
26531;BME280;14201;43.188;24.160;2024-03-23T05:35:45;99680.63;;;5.83;71.46
26531;BME280;14201;43.188;24.160;2024-03-23T05:38:11;99682.59;;;6.01;72.01
26531;BME280;14201;43.188;24.160;2024-03-23T05:40:36;99669.63;;;6.14;69.86
26531;BME280;14201;43.188;24.160;2024-03-23T05:43:06;99666.69;;;6.38;69.10
26531;BME280;14201;43.188;24.160;2024-03-23T05:45:31;99669.47;;;6.70;69.87
26531;BME280;14201;43.188;24.160;2024-03-23T05:47:57;99670.88;;;7.10;68.75
26531;BME280;14201;43.188;24.160;2024-03-23T05:50:23;99669.50;;;7.48;68.24
26531;BME280;14201;43.188;24.160;2024-03-23T05:52:49;99667.16;;;7.84;67.75
26531;BME280;14201;43.188;24.160;2024-03-23T05:55:15;99669.34;;;8.09;66.41
26531;BME280;14201;43.188;24.160;2024-03-23T05:57:41;99665.56;;;8.37;64.90
26531;BME280;14201;43.188;24.160;2024-03-23T06:00:07;99660.22;;;8.50;62.93
26531;BME280;14201;43.188;24.160;2024-03-23T06:02:43;99659.66;;;8.74;64.82
26531;BME280;14201;43.188;24.160;2024-03-23T06:05:12;99658.78;;;8.91;63.00
26531;BME280;14201;43.188;24.160;2024-03-23T06:07:37;99659.56;;;8.89;61.39
26531;BME280;14201;43.188;24.160;2024-03-23T06:10:04;99654.81;;;9.16;62.33
26531;BME280;14201;43.188;24.160;2024-03-23T06:12:31;99655.81;;;9.37;60.73
26531;BME280;14201;43.188;24.160;2024-03-23T06:14:57;99661.34;;;9.63;59.70
26531;BME280;14201;43.188;24.160;2024-03-23T06:17:23;99651.91;;;9.84;58.26
26531;BME280;14201;43.188;24.160;2024-03-23T06:19:49;99646.16;;;10.11;57.53
26531;BME280;14201;43.188;24.160;2024-03-23T06:22:15;99647.38;;;10.19;56.81
26531;BME280;14201;43.188;24.160;2024-03-23T06:24:41;99640.63;;;10.63;56.35
26531;BME280;14201;43.188;24.160;2024-03-23T06:27:08;99631.88;;;10.82;56.09
26531;BME280;14201;43.188;24.160;2024-03-23T06:29:33;99640.22;;;11.17;54.95
26531;BME280;14201;43.188;24.160;2024-03-23T06:31:59;99632.28;;;11.37;54.93
26531;BME280;14201;43.188;24.160;2024-03-23T06:34:25;99642.53;;;11.55;53.80
26531;BME280;14201;43.188;24.160;2024-03-23T06:36:50;99632.44;;;11.64;51.47
26531;BME280;14201;43.188;24.160;2024-03-23T06:39:16;99643.81;;;11.89;52.00
26531;BME280;14201;43.188;24.160;2024-03-23T06:41:52;99632.53;;;12.12;51.44
26531;BME280;14201;43.188;24.160;2024-03-23T06:44:19;99641.84;;;12.30;49.55
26531;BME280;14201;43.188;24.160;2024-03-23T06:46:45;99637.31;;;12.50;49.79
26531;BME280;14201;43.188;24.160;2024-03-23T06:49:11;99629.69;;;12.83;48.79
26531;BME280;14201;43.188;24.160;2024-03-23T06:51:37;99622.59;;;13.05;45.37
26531;BME280;14201;43.188;24.160;2024-03-23T06:54:03;99622.59;;;13.32;45.42
26531;BME280;14201;43.188;24.160;2024-03-23T06:56:30;99618.84;;;13.52;44.71
26531;BME280;14201;43.188;24.160;2024-03-23T06:58:56;99617.72;;;13.73;43.53
26531;BME280;14201;43.188;24.160;2024-03-23T07:01:22;99617.84;;;14.09;44.31
26531;BME280;14201;43.188;24.160;2024-03-23T07:03:47;99616.25;;;14.14;43.12
26531;BME280;14201;43.188;24.160;2024-03-23T07:06:13;99606.41;;;14.06;40.57
26531;BME280;14201;43.188;24.160;2024-03-23T07:08:39;99605.22;;;14.26;41.71
26531;BME280;14201;43.188;24.160;2024-03-23T07:11:05;99608.19;;;14.40;40.85
26531;BME280;14201;43.188;24.160;2024-03-23T07:13:31;99597.66;;;14.70;41.71
26531;BME280;14201;43.188;24.160;2024-03-23T07:15:56;99603.56;;;14.98;40.56
26531;BME280;14201;43.188;24.160;2024-03-23T07:18:23;99608.28;;;15.13;39.64
26531;BME280;14201;43.188;24.160;2024-03-23T07:20:55;99611.31;;;15.30;38.93
26531;BME280;14201;43.188;24.160;2024-03-23T07:23:24;99612.84;;;15.22;38.46
26531;BME280;14201;43.188;24.160;2024-03-23T07:25:57;99604.22;;;15.26;40.01
26531;BME280;14201;43.188;24.160;2024-03-23T07:28:23;99610.94;;;15.54;38.11
26531;BME280;14201;43.188;24.160;2024-03-23T07:33:32;99602.66;;;16.18;40.59
26531;BME280;14201;43.188;24.160;2024-03-23T07:35:58;99593.28;;;16.30;37.84
26531;BME280;14201;43.188;24.160;2024-03-23T07:38:28;99592.97;;;16.64;36.35
26531;BME280;14201;43.188;24.160;2024-03-23T07:41:10;99596.56;;;17.22;38.38
26531;BME280;14201;43.188;24.160;2024-03-23T07:43:37;99588.31;;;17.60;39.44
26531;BME280;14201;43.188;24.160;2024-03-23T07:46:04;99590.94;;;17.60;34.16
26531;BME280;14201;43.188;24.160;2024-03-23T07:48:30;99589.22;;;17.65;36.17
26531;BME280;14201;43.188;24.160;2024-03-23T07:51:00;99558.03;;;17.98;37.31
26531;BME280;14201;43.188;24.160;2024-03-23T07:53:26;99580.56;;;18.55;35.52
26531;BME280;14201;43.188;24.160;2024-03-23T07:56:00;99589.75;;;18.99;33.89
26531;BME280;14201;43.188;24.160;2024-03-23T07:58:26;99586.31;;;19.09;33.27
26531;BME280;14201;43.188;24.160;2024-03-23T08:00:56;99589.13;;;19.35;32.30
26531;BME280;14201;43.188;24.160;2024-03-23T08:03:22;99579.56;;;19.63;32.84
26531;BME280;14201;43.188;24.160;2024-03-23T08:05:48;99580.59;;;19.96;32.69
26531;BME280;14201;43.188;24.160;2024-03-23T08:08:14;99573.63;;;20.17;31.69
26531;BME280;14201;43.188;24.160;2024-03-23T08:10:52;99571.81;;;20.03;33.14
26531;BME280;14201;43.188;24.160;2024-03-23T08:13:19;99565.63;;;19.95;32.50
26531;BME280;14201;43.188;24.160;2024-03-23T08:15:44;99571.81;;;19.96;31.51
26531;BME280;14201;43.188;24.160;2024-03-23T08:18:13;99564.78;;;20.01;31.04
26531;BME280;14201;43.188;24.160;2024-03-23T08:20:40;99568.13;;;19.64;30.86
26531;BME280;14201;43.188;24.160;2024-03-23T08:23:07;99569.00;;;19.70;32.58
26531;BME280;14201;43.188;24.160;2024-03-23T08:25:34;99559.28;;;19.53;31.04
26531;BME280;14201;43.188;24.160;2024-03-23T08:28:00;99558.56;;;19.88;32.80
26531;BME280;14201;43.188;24.160;2024-03-23T08:30:25;99555.97;;;19.99;29.88
26531;BME280;14201;43.188;24.160;2024-03-23T08:32:52;99549.78;;;20.03;29.22
26531;BME280;14201;43.188;24.160;2024-03-23T08:35:18;99549.81;;;20.14;28.38
26531;BME280;14201;43.188;24.160;2024-03-23T08:37:44;99541.03;;;20.24;29.89
26531;BME280;14201;43.188;24.160;2024-03-23T08:40:10;99540.13;;;20.22;32.30
26531;BME280;14201;43.188;24.160;2024-03-23T08:42:36;99535.75;;;20.24;29.31
26531;BME280;14201;43.188;24.160;2024-03-23T08:45:02;99528.66;;;20.43;30.86
26531;BME280;14201;43.188;24.160;2024-03-23T08:47:28;99541.94;;;20.86;29.83
26531;BME280;14201;43.188;24.160;2024-03-23T08:49:53;99531.34;;;20.83;29.48
26531;BME280;14201;43.188;24.160;2024-03-23T08:52:20;99534.00;;;20.84;29.11
26531;BME280;14201;43.188;24.160;2024-03-23T08:54:48;99528.63;;;21.09;30.00
26531;BME280;14201;43.188;24.160;2024-03-23T08:57:14;99524.25;;;21.11;27.87
26531;BME280;14201;43.188;24.160;2024-03-23T08:59:39;99525.03;;;21.41;28.31
26531;BME280;14201;43.188;24.160;2024-03-23T09:02:05;99507.25;;;21.71;28.92
26531;BME280;14201;43.188;24.160;2024-03-23T09:04:30;99505.38;;;21.88;27.83
26531;BME280;14201;43.188;24.160;2024-03-23T09:06:56;99512.66;;;21.52;26.60
26531;BME280;14201;43.188;24.160;2024-03-23T09:09:24;99500.78;;;22.18;28.63
26531;BME280;14201;43.188;24.160;2024-03-23T09:11:49;99501.06;;;21.73;26.88
26531;BME280;14201;43.188;24.160;2024-03-23T09:14:14;99498.34;;;21.84;27.88
26531;BME280;14201;43.188;24.160;2024-03-23T09:16:40;99488.47;;;22.11;27.40
26531;BME280;14201;43.188;24.160;2024-03-23T09:19:05;99484.81;;;22.27;28.41
26531;BME280;14201;43.188;24.160;2024-03-23T09:21:31;99498.94;;;22.31;28.35
26531;BME280;14201;43.188;24.160;2024-03-23T09:23:56;99491.56;;;22.68;28.13
26531;BME280;14201;43.188;24.160;2024-03-23T09:26:21;99480.59;;;23.05;28.17
26531;BME280;14201;43.188;24.160;2024-03-23T09:28:50;99474.22;;;23.18;27.62
26531;BME280;14201;43.188;24.160;2024-03-23T09:31:15;99480.22;;;23.36;27.22
26531;BME280;14201;43.188;24.160;2024-03-23T09:33:42;99470.69;;;23.86;27.13
26531;BME280;14201;43.188;24.160;2024-03-23T09:36:08;99472.59;;;24.35;25.91
26531;BME280;14201;43.188;24.160;2024-03-23T09:38:34;99462.59;;;24.50;24.54
26531;BME280;14201;43.188;24.160;2024-03-23T09:41:00;99444.81;;;24.52;23.81
26531;BME280;14201;43.188;24.160;2024-03-23T09:43:26;99457.88;;;23.49;26.04
26531;BME280;14201;43.188;24.160;2024-03-23T09:45:53;99452.81;;;23.32;26.28
26531;BME280;14201;43.188;24.160;2024-03-23T09:48:19;99440.06;;;23.57;25.06
26531;BME280;14201;43.188;24.160;2024-03-23T09:50:45;99448.22;;;24.06;24.80
26531;BME280;14201;43.188;24.160;2024-03-23T09:53:12;99434.38;;;24.38;24.96
26531;BME280;14201;43.188;24.160;2024-03-23T09:55:42;99430.81;;;24.89;25.61
26531;BME280;14201;43.188;24.160;2024-03-23T09:58:08;99429.28;;;24.26;24.17
26531;BME280;14201;43.188;24.160;2024-03-23T10:00:37;99427.84;;;24.59;25.23
26531;BME280;14201;43.188;24.160;2024-03-23T10:03:04;99426.72;;;24.71;26.07
26531;BME280;14201;43.188;24.160;2024-03-23T10:05:32;99431.91;;;25.25;26.42
26531;BME280;14201;43.188;24.160;2024-03-23T10:10:39;99416.69;;;25.30;26.08
26531;BME280;14201;43.188;24.160;2024-03-23T10:13:05;99416.78;;;25.65;23.92
26531;BME280;14201;43.188;24.160;2024-03-23T10:15:34;99416.94;;;25.98;23.07
26531;BME280;14201;43.188;24.160;2024-03-23T10:18:25;99411.53;;;26.01;23.50
26531;BME280;14201;43.188;24.160;2024-03-23T10:21:11;99405.84;;;25.40;22.67
26531;BME280;14201;43.188;24.160;2024-03-23T10:23:41;99397.19;;;25.28;25.63
26531;BME280;14201;43.188;24.160;2024-03-23T10:26:23;99389.31;;;25.21;23.42
26531;BME280;14201;43.188;24.160;2024-03-23T10:31:30;99388.97;;;26.14;24.16
26531;BME280;14201;43.188;24.160;2024-03-23T10:33:56;99384.13;;;25.55;20.86
26531;BME280;14201;43.188;24.160;2024-03-23T10:36:23;99374.09;;;25.26;23.33
26531;BME280;14201;43.188;24.160;2024-03-23T10:38:52;99364.06;;;25.76;24.72
26531;BME280;14201;43.188;24.160;2024-03-23T10:41:18;99368.44;;;26.16;22.43
26531;BME280;14201;43.188;24.160;2024-03-23T10:43:48;99366.84;;;26.43;20.85
26531;BME280;14201;43.188;24.160;2024-03-23T10:46:15;99359.69;;;26.77;22.49
26531;BME280;14201;43.188;24.160;2024-03-23T10:48:41;99353.75;;;26.32;20.44
26531;BME280;14201;43.188;24.160;2024-03-23T10:51:09;99356.19;;;26.75;21.77
26531;BME280;14201;43.188;24.160;2024-03-23T10:53:35;99343.03;;;26.68;21.70
26531;BME280;14201;43.188;24.160;2024-03-23T10:56:02;99332.81;;;27.13;20.39
26531;BME280;14201;43.188;24.160;2024-03-23T10:58:45;99332.47;;;27.25;21.06
26531;BME280;14201;43.188;24.160;2024-03-23T11:01:12;99327.41;;;27.44;21.58
26531;BME280;14201;43.188;24.160;2024-03-23T11:03:39;99317.50;;;27.47;21.46
26531;BME280;14201;43.188;24.160;2024-03-23T11:06:10;99314.09;;;27.42;20.87
26531;BME280;14201;43.188;24.160;2024-03-23T11:08:40;99314.22;;;27.08;20.55
26531;BME280;14201;43.188;24.160;2024-03-23T11:11:14;99310.63;;;27.39;20.04
26531;BME280;14201;43.188;24.160;2024-03-23T11:13:41;99298.06;;;26.50;19.15
26531;BME280;14201;43.188;24.160;2024-03-23T11:16:27;99301.56;;;26.21;19.60
26531;BME280;14201;43.188;24.160;2024-03-23T11:19:33;99298.00;;;26.53;20.63
26531;BME280;14201;43.188;24.160;2024-03-23T11:22:00;99287.25;;;26.87;21.00
26531;BME280;14201;43.188;24.160;2024-03-23T11:24:25;99279.22;;;27.16;20.99
26531;BME280;14201;43.188;24.160;2024-03-23T11:26:51;99267.41;;;27.24;20.38
26531;BME280;14201;43.188;24.160;2024-03-23T11:29:17;99267.88;;;27.37;20.02
26531;BME280;14201;43.188;24.160;2024-03-23T11:31:51;99277.88;;;27.32;19.44
26531;BME280;14201;43.188;24.160;2024-03-23T11:34:17;99257.78;;;25.59;20.52
26531;BME280;14201;43.188;24.160;2024-03-23T11:36:43;99239.63;;;24.99;24.37
26531;BME280;14201;43.188;24.160;2024-03-23T11:39:18;99253.25;;;24.43;23.31
26531;BME280;14201;43.188;24.160;2024-03-23T11:41:48;99247.97;;;25.24;22.69
26531;BME280;14201;43.188;24.160;2024-03-23T11:44:15;99244.78;;;25.45;22.34
26531;BME280;14201;43.188;24.160;2024-03-23T11:46:41;99231.09;;;25.93;23.41
26531;BME280;14201;43.188;24.160;2024-03-23T11:49:06;99235.13;;;26.10;22.89
26531;BME280;14201;43.188;24.160;2024-03-23T11:51:31;99229.81;;;26.08;21.94
26531;BME280;14201;43.188;24.160;2024-03-23T11:54:07;99229.53;;;26.19;21.04
26531;BME280;14201;43.188;24.160;2024-03-23T11:56:32;99220.44;;;26.25;19.54
26531;BME280;14201;43.188;24.160;2024-03-23T11:58:58;99215.09;;;26.56;21.69
26531;BME280;14201;43.188;24.160;2024-03-23T12:01:24;99206.91;;;26.64;21.44
26531;BME280;14201;43.188;24.160;2024-03-23T12:03:50;99204.41;;;26.86;22.90
26531;BME280;14201;43.188;24.160;2024-03-23T12:06:19;99202.16;;;27.00;21.68
26531;BME280;14201;43.188;24.160;2024-03-23T12:08:45;99193.19;;;27.03;22.22
26531;BME280;14201;43.188;24.160;2024-03-23T12:11:13;99177.94;;;26.17;20.35
26531;BME280;14201;43.188;24.160;2024-03-23T12:13:41;99189.50;;;26.79;19.84
26531;BME280;14201;43.188;24.160;2024-03-23T12:16:12;99186.78;;;25.53;20.04
26531;BME280;14201;43.188;24.160;2024-03-23T12:18:38;99177.13;;;25.49;21.13
26531;BME280;14201;43.188;24.160;2024-03-23T12:21:05;99174.63;;;25.76;20.86
26531;BME280;14201;43.188;24.160;2024-03-23T12:23:31;99172.88;;;25.75;21.51
26531;BME280;14201;43.188;24.160;2024-03-23T12:25:57;99164.78;;;26.11;22.99
26531;BME280;14201;43.188;24.160;2024-03-23T12:28:23;99167.50;;;25.77;21.38
26531;BME280;14201;43.188;24.160;2024-03-23T12:30:48;99173.63;;;24.72;22.24
26531;BME280;14201;43.188;24.160;2024-03-23T12:33:14;99160.22;;;25.14;20.94
26531;BME280;14201;43.188;24.160;2024-03-23T12:35:39;99155.53;;;25.59;20.54
26531;BME280;14201;43.188;24.160;2024-03-23T12:38:05;99137.09;;;25.82;20.34
26531;BME280;14201;43.188;24.160;2024-03-23T12:40:31;99131.13;;;25.72;22.55
26531;BME280;14201;43.188;24.160;2024-03-23T12:42:56;99132.31;;;24.92;20.83
26531;BME280;14201;43.188;24.160;2024-03-23T12:45:22;99115.88;;;23.92;21.80
26531;BME280;14201;43.188;24.160;2024-03-23T12:47:48;99122.97;;;23.93;22.69
26531;BME280;14201;43.188;24.160;2024-03-23T12:50:14;99121.97;;;23.52;22.38
26531;BME280;14201;43.188;24.160;2024-03-23T12:52:40;99114.19;;;23.41;23.55
26531;BME280;14201;43.188;24.160;2024-03-23T12:55:09;99108.25;;;23.75;23.52
26531;BME280;14201;43.188;24.160;2024-03-23T12:57:36;99110.53;;;23.47;23.16
26531;BME280;14201;43.188;24.160;2024-03-23T13:00:02;99105.38;;;23.86;24.08
26531;BME280;14201;43.188;24.160;2024-03-23T13:02:29;99110.00;;;23.74;24.83
26531;BME280;14201;43.188;24.160;2024-03-23T13:04:56;99101.03;;;23.82;24.69
26531;BME280;14201;43.188;24.160;2024-03-23T13:07:24;99099.03;;;23.93;22.78
26531;BME280;14201;43.188;24.160;2024-03-23T13:09:53;99100.81;;;23.92;24.17
26531;BME280;14201;43.188;24.160;2024-03-23T13:12:19;99088.97;;;23.62;22.69
26531;BME280;14201;43.188;24.160;2024-03-23T13:14:46;99091.75;;;23.57;22.19
26531;BME280;14201;43.188;24.160;2024-03-23T13:17:12;99082.56;;;23.27;22.76
26531;BME280;14201;43.188;24.160;2024-03-23T13:19:38;99078.84;;;23.36;23.60
26531;BME280;14201;43.188;24.160;2024-03-23T13:22:04;99075.88;;;23.51;23.05
26531;BME280;14201;43.188;24.160;2024-03-23T13:24:30;99067.03;;;23.51;23.98
26531;BME280;14201;43.188;24.160;2024-03-23T13:26:56;99068.16;;;23.84;24.06
26531;BME280;14201;43.188;24.160;2024-03-23T13:29:23;99065.81;;;24.11;24.95
26531;BME280;14201;43.188;24.160;2024-03-23T13:31:50;99059.13;;;24.33;25.14
26531;BME280;14201;43.188;24.160;2024-03-23T13:34:17;99053.47;;;24.47;23.84
26531;BME280;14201;43.188;24.160;2024-03-23T13:36:47;99056.66;;;24.63;22.87
26531;BME280;14201;43.188;24.160;2024-03-23T13:39:14;99049.34;;;24.71;23.40
26531;BME280;14201;43.188;24.160;2024-03-23T13:41:42;99044.66;;;24.44;22.12
26531;BME280;14201;43.188;24.160;2024-03-23T13:44:10;99056.16;;;23.63;22.05
26531;BME280;14201;43.188;24.160;2024-03-23T13:46:37;99030.44;;;23.18;21.96
26531;BME280;14201;43.188;24.160;2024-03-23T13:49:03;99040.59;;;23.43;24.04
26531;BME280;14201;43.188;24.160;2024-03-23T13:51:29;99032.44;;;23.52;23.88
26531;BME280;14201;43.188;24.160;2024-03-23T13:53:56;99032.88;;;23.74;22.81
26531;BME280;14201;43.188;24.160;2024-03-23T13:56:23;99039.59;;;23.94;23.50